sensor_id;sensor_type;location;lat;lon;timestamp;P1;durP1;ratioP1;P2;durP2;ratioP2
75851;SDS011;64500;52.632;20.656;2023-03-23T00:02:25;47.50;;;29.90;;
75851;SDS011;64500;52.632;20.656;2023-03-23T00:04:53;45.50;;;30.40;;
75851;SDS011;64500;52.632;20.656;2023-03-23T00:07:21;51.60;;;31.30;;
75851;SDS011;64500;52.632;20.656;2023-03-23T00:09:54;50.30;;;31.50;;
75851;SDS011;64500;52.632;20.656;2023-03-23T00:12:25;47.30;;;30.80;;
75851;SDS011;64500;52.632;20.656;2023-03-23T00:15:02;50.00;;;31.60;;
75851;SDS011;64500;52.632;20.656;2023-03-23T00:17:30;49.60;;;32.20;;
75851;SDS011;64500;52.632;20.656;2023-03-23T00:20:01;50.90;;;31.60;;
75851;SDS011;64500;52.632;20.656;2023-03-23T00:22:31;55.10;;;31.10;;
75851;SDS011;64500;52.632;20.656;2023-03-23T00:25:04;49.30;;;31.50;;
75851;SDS011;64500;52.632;20.656;2023-03-23T00:27:32;46.60;;;31.00;;
75851;SDS011;64500;52.632;20.656;2023-03-23T00:29:59;51.60;;;31.50;;
75851;SDS011;64500;52.632;20.656;2023-03-23T00:32:27;51.40;;;31.00;;
75851;SDS011;64500;52.632;20.656;2023-03-23T00:34:55;50.00;;;31.40;;
75851;SDS011;64500;52.632;20.656;2023-03-23T00:37:25;49.40;;;31.20;;
75851;SDS011;64500;52.632;20.656;2023-03-23T00:39:52;49.20;;;30.90;;
75851;SDS011;64500;52.632;20.656;2023-03-23T00:42:24;50.20;;;30.50;;
75851;SDS011;64500;52.632;20.656;2023-03-23T00:44:52;47.20;;;30.50;;
75851;SDS011;64500;52.632;20.656;2023-03-23T00:47:27;47.70;;;30.30;;
75851;SDS011;64500;52.632;20.656;2023-03-23T00:49:54;46.80;;;30.30;;
75851;SDS011;64500;52.632;20.656;2023-03-23T00:52:23;47.00;;;28.90;;
75851;SDS011;64500;52.632;20.656;2023-03-23T00:54:50;45.20;;;29.90;;
75851;SDS011;64500;52.632;20.656;2023-03-23T00:57:18;43.40;;;28.70;;
75851;SDS011;64500;52.632;20.656;2023-03-23T00:59:45;44.90;;;30.20;;
75851;SDS011;64500;52.632;20.656;2023-03-23T01:02:12;46.40;;;30.00;;
75851;SDS011;64500;52.632;20.656;2023-03-23T01:04:39;48.80;;;30.00;;
75851;SDS011;64500;52.632;20.656;2023-03-23T01:07:06;45.90;;;29.20;;
75851;SDS011;64500;52.632;20.656;2023-03-23T01:09:34;48.60;;;30.80;;
75851;SDS011;64500;52.632;20.656;2023-03-23T01:12:02;51.10;;;30.90;;
75851;SDS011;64500;52.632;20.656;2023-03-23T01:14:32;48.30;;;30.30;;
75851;SDS011;64500;52.632;20.656;2023-03-23T01:17:02;48.20;;;31.80;;
75851;SDS011;64500;52.632;20.656;2023-03-23T01:19:32;47.70;;;30.70;;
75851;SDS011;64500;52.632;20.656;2023-03-23T01:21:59;52.60;;;31.40;;
75851;SDS011;64500;52.632;20.656;2023-03-23T01:24:26;46.30;;;30.50;;
75851;SDS011;64500;52.632;20.656;2023-03-23T01:26:53;51.10;;;31.40;;
75851;SDS011;64500;52.632;20.656;2023-03-23T01:29:20;46.30;;;29.40;;
75851;SDS011;64500;52.632;20.656;2023-03-23T01:31:47;49.60;;;29.90;;
75851;SDS011;64500;52.632;20.656;2023-03-23T01:34:14;50.50;;;30.90;;
75851;SDS011;64500;52.632;20.656;2023-03-23T01:36:42;46.60;;;30.20;;
75851;SDS011;64500;52.632;20.656;2023-03-23T01:39:11;44.60;;;29.50;;
75851;SDS011;64500;52.632;20.656;2023-03-23T01:41:38;44.00;;;28.80;;
75851;SDS011;64500;52.632;20.656;2023-03-23T01:46:55;46.10;;;28.90;;
75851;SDS011;64500;52.632;20.656;2023-03-23T01:49:24;47.30;;;29.90;;
75851;SDS011;64500;52.632;20.656;2023-03-23T01:51:55;44.50;;;27.90;;
75851;SDS011;64500;52.632;20.656;2023-03-23T01:54:26;45.70;;;29.70;;
75851;SDS011;64500;52.632;20.656;2023-03-23T01:59:28;47.70;;;29.20;;
75851;SDS011;64500;52.632;20.656;2023-03-23T02:01:57;46.10;;;28.80;;
75851;SDS011;64500;52.632;20.656;2023-03-23T02:04:27;44.70;;;28.00;;
75851;SDS011;64500;52.632;20.656;2023-03-23T02:06:56;41.10;;;27.00;;
75851;SDS011;64500;52.632;20.656;2023-03-23T02:09:25;44.00;;;28.50;;
75851;SDS011;64500;52.632;20.656;2023-03-23T02:11:52;42.30;;;27.70;;
75851;SDS011;64500;52.632;20.656;2023-03-23T02:14:21;42.00;;;26.90;;
75851;SDS011;64500;52.632;20.656;2023-03-23T02:31:20;42.60;;;26.30;;
75851;SDS011;64500;52.632;20.656;2023-03-23T02:34:00;44.70;;;26.50;;
75851;SDS011;64500;52.632;20.656;2023-03-23T02:36:38;43.60;;;27.60;;
75851;SDS011;64500;52.632;20.656;2023-03-23T02:39:12;37.90;;;26.60;;
75851;SDS011;64500;52.632;20.656;2023-03-23T02:41:53;44.90;;;27.80;;
75851;SDS011;64500;52.632;20.656;2023-03-23T02:44:25;43.90;;;27.10;;
75851;SDS011;64500;52.632;20.656;2023-03-23T02:46:56;44.60;;;27.90;;
75851;SDS011;64500;52.632;20.656;2023-03-23T02:49:27;44.90;;;28.70;;
75851;SDS011;64500;52.632;20.656;2023-03-23T02:51:58;45.80;;;27.80;;
75851;SDS011;64500;52.632;20.656;2023-03-23T02:54:28;44.70;;;28.50;;
75851;SDS011;64500;52.632;20.656;2023-03-23T02:56:56;44.20;;;28.80;;
75851;SDS011;64500;52.632;20.656;2023-03-23T02:59:24;41.90;;;28.00;;
75851;SDS011;64500;52.632;20.656;2023-03-23T03:01:54;46.00;;;28.50;;
75851;SDS011;64500;52.632;20.656;2023-03-23T03:04:26;43.40;;;28.20;;
75851;SDS011;64500;52.632;20.656;2023-03-23T03:07:01;45.20;;;29.40;;
75851;SDS011;64500;52.632;20.656;2023-03-23T03:15:06;46.90;;;28.50;;
75851;SDS011;64500;52.632;20.656;2023-03-23T03:17:38;45.60;;;28.60;;
75851;SDS011;64500;52.632;20.656;2023-03-23T03:20:11;45.40;;;29.30;;
75851;SDS011;64500;52.632;20.656;2023-03-23T03:22:41;46.90;;;29.40;;
75851;SDS011;64500;52.632;20.656;2023-03-23T03:25:12;46.20;;;29.90;;
75851;SDS011;64500;52.632;20.656;2023-03-23T03:27:42;47.00;;;30.60;;
75851;SDS011;64500;52.632;20.656;2023-03-23T03:30:12;47.70;;;29.30;;
75851;SDS011;64500;52.632;20.656;2023-03-23T03:32:44;48.20;;;28.20;;
75851;SDS011;64500;52.632;20.656;2023-03-23T03:35:15;47.20;;;29.90;;
75851;SDS011;64500;52.632;20.656;2023-03-23T03:37:42;48.30;;;29.80;;
75851;SDS011;64500;52.632;20.656;2023-03-23T03:40:11;46.60;;;29.50;;
75851;SDS011;64500;52.632;20.656;2023-03-23T03:42:41;44.60;;;29.20;;
75851;SDS011;64500;52.632;20.656;2023-03-23T03:45:15;45.30;;;29.50;;
75851;SDS011;64500;52.632;20.656;2023-03-23T03:47:44;48.40;;;30.50;;
75851;SDS011;64500;52.632;20.656;2023-03-23T03:50:12;44.10;;;29.90;;
75851;SDS011;64500;52.632;20.656;2023-03-23T03:52:39;45.50;;;30.40;;
75851;SDS011;64500;52.632;20.656;2023-03-23T03:55:07;48.80;;;29.80;;
75851;SDS011;64500;52.632;20.656;2023-03-23T03:57:36;45.00;;;29.40;;
75851;SDS011;64500;52.632;20.656;2023-03-23T04:00:04;46.30;;;29.30;;
75851;SDS011;64500;52.632;20.656;2023-03-23T04:02:47;44.70;;;30.30;;
75851;SDS011;64500;52.632;20.656;2023-03-23T04:05:17;43.60;;;29.10;;
75851;SDS011;64500;52.632;20.656;2023-03-23T04:07:45;44.80;;;28.00;;
75851;SDS011;64500;52.632;20.656;2023-03-23T04:10:15;44.60;;;29.90;;
75851;SDS011;64500;52.632;20.656;2023-03-23T04:12:43;41.40;;;28.80;;
75851;SDS011;64500;52.632;20.656;2023-03-23T04:15:12;41.60;;;26.50;;
75851;SDS011;64500;52.632;20.656;2023-03-23T04:17:40;42.40;;;27.10;;
75851;SDS011;64500;52.632;20.656;2023-03-23T04:20:07;42.80;;;27.50;;
75851;SDS011;64500;52.632;20.656;2023-03-23T04:22:39;45.00;;;28.40;;
75851;SDS011;64500;52.632;20.656;2023-03-23T04:25:11;42.70;;;27.00;;
75851;SDS011;64500;52.632;20.656;2023-03-23T04:27:39;42.50;;;26.80;;
75851;SDS011;64500;52.632;20.656;2023-03-23T04:30:10;40.70;;;26.10;;
75851;SDS011;64500;52.632;20.656;2023-03-23T04:32:39;40.70;;;26.90;;
75851;SDS011;64500;52.632;20.656;2023-03-23T04:35:10;40.10;;;26.10;;
75851;SDS011;64500;52.632;20.656;2023-03-23T04:37:40;40.40;;;26.50;;
75851;SDS011;64500;52.632;20.656;2023-03-23T04:40:08;39.70;;;24.70;;
75851;SDS011;64500;52.632;20.656;2023-03-23T04:45:16;39.00;;;23.80;;
75851;SDS011;64500;52.632;20.656;2023-03-23T04:47:50;37.70;;;24.40;;
75851;SDS011;64500;52.632;20.656;2023-03-23T04:50:27;36.40;;;23.60;;
75851;SDS011;64500;52.632;20.656;2023-03-23T04:52:57;36.10;;;22.80;;
75851;SDS011;64500;52.632;20.656;2023-03-23T04:55:25;34.20;;;23.10;;
75851;SDS011;64500;52.632;20.656;2023-03-23T04:57:52;36.10;;;22.60;;
75851;SDS011;64500;52.632;20.656;2023-03-23T05:00:20;35.00;;;22.60;;
75851;SDS011;64500;52.632;20.656;2023-03-23T05:02:47;37.60;;;21.50;;
75851;SDS011;64500;52.632;20.656;2023-03-23T05:05:18;35.40;;;22.50;;
75851;SDS011;64500;52.632;20.656;2023-03-23T05:07:46;34.50;;;21.70;;
75851;SDS011;64500;52.632;20.656;2023-03-23T05:10:14;32.10;;;20.10;;
75851;SDS011;64500;52.632;20.656;2023-03-23T05:12:43;33.50;;;20.80;;
75851;SDS011;64500;52.632;20.656;2023-03-23T05:15:11;31.70;;;20.20;;
75851;SDS011;64500;52.632;20.656;2023-03-23T05:17:40;29.00;;;19.70;;
75851;SDS011;64500;52.632;20.656;2023-03-23T05:20:11;30.50;;;19.70;;
75851;SDS011;64500;52.632;20.656;2023-03-23T05:22:41;31.20;;;18.00;;
75851;SDS011;64500;52.632;20.656;2023-03-23T05:25:10;28.80;;;19.50;;
75851;SDS011;64500;52.632;20.656;2023-03-23T05:27:37;29.20;;;19.10;;
75851;SDS011;64500;52.632;20.656;2023-03-23T05:30:06;30.40;;;19.30;;
75851;SDS011;64500;52.632;20.656;2023-03-23T05:32:34;32.80;;;18.80;;
75851;SDS011;64500;52.632;20.656;2023-03-23T05:35:01;28.00;;;18.50;;
75851;SDS011;64500;52.632;20.656;2023-03-23T05:37:30;29.00;;;18.20;;
75851;SDS011;64500;52.632;20.656;2023-03-23T05:40:00;28.70;;;17.70;;
75851;SDS011;64500;52.632;20.656;2023-03-23T05:42:33;29.70;;;19.00;;
75851;SDS011;64500;52.632;20.656;2023-03-23T05:45:03;31.30;;;18.70;;
75851;SDS011;64500;52.632;20.656;2023-03-23T05:47:31;27.60;;;17.80;;
75851;SDS011;64500;52.632;20.656;2023-03-23T05:49:59;33.00;;;18.50;;
75851;SDS011;64500;52.632;20.656;2023-03-23T05:52:27;28.90;;;18.00;;
75851;SDS011;64500;52.632;20.656;2023-03-23T05:54:54;28.80;;;17.60;;
75851;SDS011;64500;52.632;20.656;2023-03-23T05:57:20;27.60;;;17.10;;
75851;SDS011;64500;52.632;20.656;2023-03-23T05:59:51;27.80;;;17.70;;
75851;SDS011;64500;52.632;20.656;2023-03-23T06:02:19;27.20;;;17.20;;
75851;SDS011;64500;52.632;20.656;2023-03-23T06:04:47;26.30;;;17.00;;
75851;SDS011;64500;52.632;20.656;2023-03-23T06:07:15;26.50;;;16.70;;
75851;SDS011;64500;52.632;20.656;2023-03-23T06:09:42;25.80;;;16.00;;
75851;SDS011;64500;52.632;20.656;2023-03-23T06:12:09;23.20;;;15.80;;
75851;SDS011;64500;52.632;20.656;2023-03-23T06:14:36;28.00;;;16.60;;
75851;SDS011;64500;52.632;20.656;2023-03-23T06:17:04;27.30;;;15.50;;
75851;SDS011;64500;52.632;20.656;2023-03-23T06:19:32;24.70;;;15.40;;
75851;SDS011;64500;52.632;20.656;2023-03-23T06:22:00;25.90;;;15.70;;
75851;SDS011;64500;52.632;20.656;2023-03-23T06:24:28;25.20;;;15.20;;
75851;SDS011;64500;52.632;20.656;2023-03-23T06:26:55;30.80;;;16.00;;
75851;SDS011;64500;52.632;20.656;2023-03-23T06:29:22;23.50;;;15.40;;
75851;SDS011;64500;52.632;20.656;2023-03-23T06:31:55;23.70;;;14.90;;
75851;SDS011;64500;52.632;20.656;2023-03-23T06:34:25;22.40;;;14.50;;
75851;SDS011;64500;52.632;20.656;2023-03-23T06:36:52;23.00;;;15.00;;
75851;SDS011;64500;52.632;20.656;2023-03-23T06:39:20;23.30;;;14.50;;
75851;SDS011;64500;52.632;20.656;2023-03-23T06:41:48;23.00;;;14.70;;
75851;SDS011;64500;52.632;20.656;2023-03-23T06:44:16;22.50;;;14.20;;
75851;SDS011;64500;52.632;20.656;2023-03-23T06:46:43;23.40;;;14.00;;
75851;SDS011;64500;52.632;20.656;2023-03-23T06:49:10;20.20;;;13.60;;
75851;SDS011;64500;52.632;20.656;2023-03-23T06:51:38;22.70;;;14.40;;
75851;SDS011;64500;52.632;20.656;2023-03-23T06:54:05;20.40;;;13.10;;
75851;SDS011;64500;52.632;20.656;2023-03-23T06:56:32;20.30;;;13.90;;
75851;SDS011;64500;52.632;20.656;2023-03-23T06:59:00;24.70;;;14.50;;
75851;SDS011;64500;52.632;20.656;2023-03-23T07:01:27;20.20;;;13.40;;
75851;SDS011;64500;52.632;20.656;2023-03-23T07:03:54;21.40;;;13.60;;
75851;SDS011;64500;52.632;20.656;2023-03-23T07:06:25;21.70;;;13.00;;
75851;SDS011;64500;52.632;20.656;2023-03-23T07:08:52;22.80;;;13.60;;
75851;SDS011;64500;52.632;20.656;2023-03-23T07:11:19;20.20;;;12.50;;
75851;SDS011;64500;52.632;20.656;2023-03-23T07:13:46;20.30;;;11.80;;
75851;SDS011;64500;52.632;20.656;2023-03-23T07:16:13;19.40;;;12.60;;
75851;SDS011;64500;52.632;20.656;2023-03-23T07:18:40;19.70;;;11.90;;
75851;SDS011;64500;52.632;20.656;2023-03-23T07:21:07;18.70;;;11.50;;
75851;SDS011;64500;52.632;20.656;2023-03-23T07:23:35;18.60;;;11.60;;
75851;SDS011;64500;52.632;20.656;2023-03-23T07:26:02;20.00;;;11.50;;
75851;SDS011;64500;52.632;20.656;2023-03-23T07:28:32;18.80;;;11.40;;
75851;SDS011;64500;52.632;20.656;2023-03-23T07:30:59;17.80;;;11.30;;
75851;SDS011;64500;52.632;20.656;2023-03-23T07:33:26;17.10;;;10.30;;
75851;SDS011;64500;52.632;20.656;2023-03-23T07:35:53;17.10;;;10.40;;
75851;SDS011;64500;52.632;20.656;2023-03-23T07:38:20;16.60;;;10.10;;
75851;SDS011;64500;52.632;20.656;2023-03-23T07:40:47;17.80;;;10.10;;
75851;SDS011;64500;52.632;20.656;2023-03-23T07:43:14;18.20;;;9.70;;
75851;SDS011;64500;52.632;20.656;2023-03-23T07:45:41;18.10;;;9.70;;
75851;SDS011;64500;52.632;20.656;2023-03-23T07:48:08;16.80;;;9.80;;
75851;SDS011;64500;52.632;20.656;2023-03-23T07:50:35;15.40;;;9.90;;
75851;SDS011;64500;52.632;20.656;2023-03-23T07:53:03;14.90;;;9.30;;
75851;SDS011;64500;52.632;20.656;2023-03-23T07:55:30;17.60;;;10.10;;
75851;SDS011;64500;52.632;20.656;2023-03-23T07:57:58;15.50;;;9.10;;
75851;SDS011;64500;52.632;20.656;2023-03-23T08:00:25;17.30;;;9.90;;
75851;SDS011;64500;52.632;20.656;2023-03-23T08:02:54;16.70;;;9.70;;
75851;SDS011;64500;52.632;20.656;2023-03-23T08:05:21;15.60;;;8.70;;
75851;SDS011;64500;52.632;20.656;2023-03-23T08:07:52;15.40;;;9.10;;
75851;SDS011;64500;52.632;20.656;2023-03-23T08:10:21;14.70;;;9.30;;
75851;SDS011;64500;52.632;20.656;2023-03-23T08:12:53;17.00;;;9.60;;
75851;SDS011;64500;52.632;20.656;2023-03-23T08:17:50;14.60;;;8.00;;
75851;SDS011;64500;52.632;20.656;2023-03-23T08:20:18;16.80;;;8.60;;
75851;SDS011;64500;52.632;20.656;2023-03-23T08:22:50;14.60;;;8.20;;
75851;SDS011;64500;52.632;20.656;2023-03-23T08:25:20;15.70;;;8.60;;
75851;SDS011;64500;52.632;20.656;2023-03-23T08:27:48;14.40;;;8.50;;
75851;SDS011;64500;52.632;20.656;2023-03-23T08:30:16;14.20;;;8.00;;
75851;SDS011;64500;52.632;20.656;2023-03-23T08:32:46;13.60;;;8.00;;
75851;SDS011;64500;52.632;20.656;2023-03-23T08:35:13;16.00;;;8.60;;
75851;SDS011;64500;52.632;20.656;2023-03-23T08:37:42;13.40;;;8.60;;
75851;SDS011;64500;52.632;20.656;2023-03-23T08:40:10;15.50;;;7.90;;
75851;SDS011;64500;52.632;20.656;2023-03-23T08:42:41;14.20;;;7.90;;
75851;SDS011;64500;52.632;20.656;2023-03-23T08:45:13;13.40;;;7.80;;
75851;SDS011;64500;52.632;20.656;2023-03-23T08:47:43;13.20;;;7.90;;
75851;SDS011;64500;52.632;20.656;2023-03-23T08:50:12;17.40;;;8.60;;
75851;SDS011;64500;52.632;20.656;2023-03-23T08:52:42;14.30;;;8.00;;
75851;SDS011;64500;52.632;20.656;2023-03-23T08:55:10;14.30;;;8.20;;
75851;SDS011;64500;52.632;20.656;2023-03-23T08:57:38;14.10;;;8.30;;
75851;SDS011;64500;52.632;20.656;2023-03-23T09:00:07;15.20;;;9.00;;
75851;SDS011;64500;52.632;20.656;2023-03-23T09:02:43;15.40;;;8.20;;
75851;SDS011;64500;52.632;20.656;2023-03-23T09:05:15;15.30;;;8.80;;
75851;SDS011;64500;52.632;20.656;2023-03-23T09:07:44;16.20;;;8.70;;
75851;SDS011;64500;52.632;20.656;2023-03-23T09:10:14;15.40;;;7.80;;
75851;SDS011;64500;52.632;20.656;2023-03-23T09:12:43;12.70;;;7.20;;
75851;SDS011;64500;52.632;20.656;2023-03-23T09:15:12;14.00;;;7.50;;
75851;SDS011;64500;52.632;20.656;2023-03-23T09:17:42;15.10;;;7.60;;
75851;SDS011;64500;52.632;20.656;2023-03-23T09:20:12;12.20;;;6.90;;
75851;SDS011;64500;52.632;20.656;2023-03-23T09:22:41;11.80;;;6.70;;
75851;SDS011;64500;52.632;20.656;2023-03-23T09:25:13;13.40;;;6.50;;
75851;SDS011;64500;52.632;20.656;2023-03-23T09:27:43;10.90;;;6.30;;
75851;SDS011;64500;52.632;20.656;2023-03-23T09:30:13;14.10;;;5.50;;
75851;SDS011;64500;52.632;20.656;2023-03-23T09:32:46;15.30;;;6.30;;
75851;SDS011;64500;52.632;20.656;2023-03-23T09:35:15;10.80;;;5.50;;
75851;SDS011;64500;52.632;20.656;2023-03-23T09:37:43;12.60;;;5.80;;
75851;SDS011;64500;52.632;20.656;2023-03-23T09:40:13;14.60;;;5.70;;
75851;SDS011;64500;52.632;20.656;2023-03-23T09:45:39;11.70;;;6.40;;
75851;SDS011;64500;52.632;20.656;2023-03-23T09:48:14;11.10;;;5.60;;
75851;SDS011;64500;52.632;20.656;2023-03-23T09:50:44;11.10;;;6.00;;
75851;SDS011;64500;52.632;20.656;2023-03-23T09:53:22;12.90;;;6.30;;
75851;SDS011;64500;52.632;20.656;2023-03-23T09:55:55;11.00;;;6.00;;
75851;SDS011;64500;52.632;20.656;2023-03-23T09:58:34;11.10;;;5.40;;
75851;SDS011;64500;52.632;20.656;2023-03-23T10:04:19;10.20;;;5.40;;
75851;SDS011;64500;52.632;20.656;2023-03-23T10:06:52;13.70;;;4.60;;
75851;SDS011;64500;52.632;20.656;2023-03-23T10:09:24;8.20;;;4.20;;
75851;SDS011;64500;52.632;20.656;2023-03-23T10:12:09;8.90;;;4.50;;
75851;SDS011;64500;52.632;20.656;2023-03-23T10:14:48;9.10;;;4.00;;
75851;SDS011;64500;52.632;20.656;2023-03-23T10:17:28;9.40;;;4.30;;
75851;SDS011;64500;52.632;20.656;2023-03-23T10:22:40;10.20;;;4.60;;
75851;SDS011;64500;52.632;20.656;2023-03-23T10:25:15;8.90;;;4.30;;
75851;SDS011;64500;52.632;20.656;2023-03-23T10:30:44;9.00;;;4.20;;
75851;SDS011;64500;52.632;20.656;2023-03-23T10:33:30;11.80;;;4.60;;
75851;SDS011;64500;52.632;20.656;2023-03-23T10:39:01;8.60;;;4.20;;
75851;SDS011;64500;52.632;20.656;2023-03-23T10:41:36;10.10;;;4.80;;
75851;SDS011;64500;52.632;20.656;2023-03-23T10:44:16;12.10;;;4.70;;
75851;SDS011;64500;52.632;20.656;2023-03-23T10:46:48;10.40;;;4.00;;
75851;SDS011;64500;52.632;20.656;2023-03-23T10:49:28;10.20;;;4.40;;
75851;SDS011;64500;52.632;20.656;2023-03-23T10:54:49;8.90;;;3.20;;
75851;SDS011;64500;52.632;20.656;2023-03-23T10:57:21;9.40;;;3.30;;
75851;SDS011;64500;52.632;20.656;2023-03-23T10:59:51;7.80;;;3.30;;
75851;SDS011;64500;52.632;20.656;2023-03-23T11:02:18;7.40;;;3.20;;
75851;SDS011;64500;52.632;20.656;2023-03-23T11:05:04;8.80;;;3.10;;
75851;SDS011;64500;52.632;20.656;2023-03-23T11:07:40;7.20;;;2.90;;
75851;SDS011;64500;52.632;20.656;2023-03-23T11:10:15;8.40;;;3.50;;
75851;SDS011;64500;52.632;20.656;2023-03-23T11:12:48;7.30;;;3.30;;
75851;SDS011;64500;52.632;20.656;2023-03-23T11:15:26;7.90;;;2.70;;
75851;SDS011;64500;52.632;20.656;2023-03-23T11:17:56;8.40;;;3.00;;
75851;SDS011;64500;52.632;20.656;2023-03-23T11:20:26;8.20;;;3.30;;
75851;SDS011;64500;52.632;20.656;2023-03-23T11:22:55;9.00;;;3.50;;
75851;SDS011;64500;52.632;20.656;2023-03-23T11:25:22;6.50;;;3.00;;
75851;SDS011;64500;52.632;20.656;2023-03-23T11:27:50;7.20;;;3.30;;
75851;SDS011;64500;52.632;20.656;2023-03-23T11:30:25;6.70;;;3.00;;
75851;SDS011;64500;52.632;20.656;2023-03-23T11:32:59;7.50;;;3.10;;
75851;SDS011;64500;52.632;20.656;2023-03-23T11:35:28;9.60;;;2.80;;
75851;SDS011;64500;52.632;20.656;2023-03-23T11:37:56;7.30;;;3.00;;
75851;SDS011;64500;52.632;20.656;2023-03-23T11:40:29;7.40;;;3.00;;
75851;SDS011;64500;52.632;20.656;2023-03-23T11:43:07;6.90;;;2.90;;
75851;SDS011;64500;52.632;20.656;2023-03-23T11:45:38;6.40;;;2.70;;
75851;SDS011;64500;52.632;20.656;2023-03-23T11:50:54;7.00;;;2.70;;
75851;SDS011;64500;52.632;20.656;2023-03-23T11:53:48;8.70;;;3.10;;
75851;SDS011;64500;52.632;20.656;2023-03-23T11:56:25;8.20;;;2.80;;
75851;SDS011;64500;52.632;20.656;2023-03-23T11:58:57;6.50;;;2.50;;
75851;SDS011;64500;52.632;20.656;2023-03-23T12:15:52;5.30;;;2.10;;
75851;SDS011;64500;52.632;20.656;2023-03-23T12:18:39;6.00;;;2.00;;
75851;SDS011;64500;52.632;20.656;2023-03-23T12:21:21;6.90;;;2.10;;
75851;SDS011;64500;52.632;20.656;2023-03-23T12:27:04;5.70;;;2.20;;
75851;SDS011;64500;52.632;20.656;2023-03-23T12:32:47;5.80;;;2.30;;
75851;SDS011;64500;52.632;20.656;2023-03-23T12:35:30;7.20;;;2.50;;
75851;SDS011;64500;52.632;20.656;2023-03-23T12:41:04;6.10;;;2.20;;
75851;SDS011;64500;52.632;20.656;2023-03-23T12:46:20;6.50;;;2.40;;
75851;SDS011;64500;52.632;20.656;2023-03-23T12:48:57;7.50;;;2.10;;
75851;SDS011;64500;52.632;20.656;2023-03-23T12:51:34;6.10;;;2.30;;
75851;SDS011;64500;52.632;20.656;2023-03-23T12:59:45;6.60;;;2.40;;
75851;SDS011;64500;52.632;20.656;2023-03-23T13:02:25;7.40;;;2.90;;
75851;SDS011;64500;52.632;20.656;2023-03-23T13:08:42;8.30;;;3.10;;
75851;SDS011;64500;52.632;20.656;2023-03-23T13:10:54;7.20;;;2.70;;
75851;SDS011;64500;52.632;20.656;2023-03-23T13:21:40;8.30;;;2.70;;
75851;SDS011;64500;52.632;20.656;2023-03-23T13:24:14;6.70;;;2.70;;
75851;SDS011;64500;52.632;20.656;2023-03-23T13:26:45;8.30;;;2.50;;
75851;SDS011;64500;52.632;20.656;2023-03-23T13:29:20;6.60;;;2.30;;
75851;SDS011;64500;52.632;20.656;2023-03-23T13:32:15;8.40;;;3.10;;
75851;SDS011;64500;52.632;20.656;2023-03-23T13:34:45;5.90;;;2.40;;
75851;SDS011;64500;52.632;20.656;2023-03-23T13:37:26;11.90;;;3.00;;
75851;SDS011;64500;52.632;20.656;2023-03-23T13:39:55;7.50;;;2.60;;
75851;SDS011;64500;52.632;20.656;2023-03-23T13:42:26;6.40;;;2.40;;
75851;SDS011;64500;52.632;20.656;2023-03-23T13:45:06;6.70;;;2.50;;
75851;SDS011;64500;52.632;20.656;2023-03-23T13:48:02;7.20;;;2.50;;
75851;SDS011;64500;52.632;20.656;2023-03-23T13:50:57;6.50;;;2.40;;
75851;SDS011;64500;52.632;20.656;2023-03-23T13:53:31;7.50;;;2.40;;
75851;SDS011;64500;52.632;20.656;2023-03-23T13:56:21;7.50;;;2.80;;
75851;SDS011;64500;52.632;20.656;2023-03-23T13:59:34;8.60;;;2.60;;
75851;SDS011;64500;52.632;20.656;2023-03-23T14:01:57;5.90;;;2.60;;
75851;SDS011;64500;52.632;20.656;2023-03-23T14:07:56;7.90;;;3.10;;
75851;SDS011;64500;52.632;20.656;2023-03-23T14:10:33;7.50;;;3.00;;
75851;SDS011;64500;52.632;20.656;2023-03-23T14:13:20;7.30;;;2.90;;
75851;SDS011;64500;52.632;20.656;2023-03-23T14:15:57;6.70;;;2.70;;
75851;SDS011;64500;52.632;20.656;2023-03-23T14:18:29;6.40;;;2.50;;
75851;SDS011;64500;52.632;20.656;2023-03-23T14:21:00;6.70;;;2.90;;
75851;SDS011;64500;52.632;20.656;2023-03-23T14:23:30;9.50;;;3.20;;
75851;SDS011;64500;52.632;20.656;2023-03-23T14:26:03;9.60;;;2.90;;
75851;SDS011;64500;52.632;20.656;2023-03-23T14:28:38;7.70;;;2.70;;
75851;SDS011;64500;52.632;20.656;2023-03-23T14:31:15;6.20;;;2.90;;
75851;SDS011;64500;52.632;20.656;2023-03-23T14:33:48;6.70;;;2.60;;
75851;SDS011;64500;52.632;20.656;2023-03-23T14:36:21;8.80;;;2.90;;
75851;SDS011;64500;52.632;20.656;2023-03-23T14:39:03;7.90;;;2.90;;
75851;SDS011;64500;52.632;20.656;2023-03-23T14:41:37;9.20;;;3.00;;
75851;SDS011;64500;52.632;20.656;2023-03-23T14:44:06;6.80;;;2.70;;
75851;SDS011;64500;52.632;20.656;2023-03-23T14:46:36;8.40;;;3.00;;
75851;SDS011;64500;52.632;20.656;2023-03-23T14:49:04;10.20;;;3.00;;
75851;SDS011;64500;52.632;20.656;2023-03-23T14:51:32;8.30;;;3.40;;
75851;SDS011;64500;52.632;20.656;2023-03-23T14:53:59;7.50;;;3.00;;
75851;SDS011;64500;52.632;20.656;2023-03-23T14:56:34;8.70;;;3.30;;
75851;SDS011;64500;52.632;20.656;2023-03-23T14:59:04;9.10;;;3.60;;
75851;SDS011;64500;52.632;20.656;2023-03-23T15:01:33;9.20;;;3.90;;
75851;SDS011;64500;52.632;20.656;2023-03-23T15:04:09;11.00;;;3.70;;
75851;SDS011;64500;52.632;20.656;2023-03-23T15:06:43;9.70;;;3.70;;
75851;SDS011;64500;52.632;20.656;2023-03-23T15:09:21;10.30;;;5.20;;
75851;SDS011;64500;52.632;20.656;2023-03-23T15:11:51;10.40;;;4.80;;
75851;SDS011;64500;52.632;20.656;2023-03-23T15:14:36;11.70;;;5.20;;
75851;SDS011;64500;52.632;20.656;2023-03-23T15:17:18;11.30;;;4.80;;
75851;SDS011;64500;52.632;20.656;2023-03-23T15:19:46;9.30;;;4.40;;
75851;SDS011;64500;52.632;20.656;2023-03-23T15:25:38;9.30;;;3.90;;
75851;SDS011;64500;52.632;20.656;2023-03-23T15:27:50;8.40;;;3.60;;
75851;SDS011;64500;52.632;20.656;2023-03-23T15:32:53;8.20;;;3.60;;
75851;SDS011;64500;52.632;20.656;2023-03-23T15:35:23;7.60;;;3.50;;
75851;SDS011;64500;52.632;20.656;2023-03-23T15:37:58;9.00;;;4.00;;
75851;SDS011;64500;52.632;20.656;2023-03-23T15:43:05;8.70;;;3.20;;
75851;SDS011;64500;52.632;20.656;2023-03-23T15:45:33;7.30;;;3.50;;
75851;SDS011;64500;52.632;20.656;2023-03-23T15:48:12;7.80;;;3.30;;
75851;SDS011;64500;52.632;20.656;2023-03-23T15:50:40;8.70;;;3.50;;
75851;SDS011;64500;52.632;20.656;2023-03-23T15:55:58;9.20;;;3.80;;
75851;SDS011;64500;52.632;20.656;2023-03-23T15:58:27;8.40;;;3.40;;
75851;SDS011;64500;52.632;20.656;2023-03-23T16:00:55;8.00;;;3.50;;
75851;SDS011;64500;52.632;20.656;2023-03-23T16:03:24;8.90;;;3.50;;
75851;SDS011;64500;52.632;20.656;2023-03-23T16:05:54;7.20;;;3.30;;
75851;SDS011;64500;52.632;20.656;2023-03-23T16:08:23;10.10;;;4.20;;
75851;SDS011;64500;52.632;20.656;2023-03-23T16:10:50;9.40;;;3.50;;
75851;SDS011;64500;52.632;20.656;2023-03-23T16:13:17;7.30;;;3.30;;
75851;SDS011;64500;52.632;20.656;2023-03-23T16:15:45;8.50;;;3.10;;
75851;SDS011;64500;52.632;20.656;2023-03-23T16:18:17;10.50;;;4.30;;
75851;SDS011;64500;52.632;20.656;2023-03-23T16:20:47;8.30;;;3.20;;
75851;SDS011;64500;52.632;20.656;2023-03-23T16:23:15;9.20;;;3.60;;
75851;SDS011;64500;52.632;20.656;2023-03-23T16:25:43;8.90;;;3.40;;
75851;SDS011;64500;52.632;20.656;2023-03-23T16:28:11;8.00;;;2.80;;
75851;SDS011;64500;52.632;20.656;2023-03-23T16:30:40;7.50;;;3.10;;